sensor_id;sensor_type;location;lat;lon;timestamp;pressure;altitude;pressure_sealevel;temperature;humidity
75420;BME280;63998;52.488;13.428;2022-11-13T00:02:14;102639.31;;;11.36;72.61
75420;BME280;63998;52.488;13.428;2022-11-13T00:04:39;102634.22;;;11.41;72.70
75420;BME280;63998;52.488;13.428;2022-11-13T00:07:04;102637.06;;;11.50;73.02
75420;BME280;63998;52.488;13.428;2022-11-13T00:09:30;102629.41;;;11.55;72.83
75420;BME280;63998;52.488;13.428;2022-11-13T00:11:55;102646.09;;;11.61;71.63
75420;BME280;63998;52.488;13.428;2022-11-13T00:14:20;102639.19;;;11.63;72.40
75420;BME280;63998;52.488;13.428;2022-11-13T00:16:46;102647.94;;;11.65;72.33
75420;BME280;63998;52.488;13.428;2022-11-13T00:19:11;102645.41;;;11.68;71.80
75420;BME280;63998;52.488;13.428;2022-11-13T00:21:36;102640.31;;;11.71;72.26
75420;BME280;63998;52.488;13.428;2022-11-13T00:24:02;102639.56;;;11.75;72.06
75420;BME280;63998;52.488;13.428;2022-11-13T00:26:28;102636.03;;;11.73;72.21
75420;BME280;63998;52.488;13.428;2022-11-13T00:28:59;102639.47;;;11.72;71.80
75420;BME280;63998;52.488;13.428;2022-11-13T00:31:25;102640.53;;;11.79;72.14
75420;BME280;63998;52.488;13.428;2022-11-13T00:33:53;102631.00;;;11.79;72.03
75420;BME280;63998;52.488;13.428;2022-11-13T00:36:21;102628.44;;;11.81;71.46
75420;BME280;63998;52.488;13.428;2022-11-13T00:38:47;102624.91;;;11.79;71.88
75420;BME280;63998;52.488;13.428;2022-11-13T00:41:13;102634.63;;;11.84;71.87
75420;BME280;63998;52.488;13.428;2022-11-13T00:43:39;102626.88;;;11.87;72.57
75420;BME280;63998;52.488;13.428;2022-11-13T00:46:05;102629.66;;;11.94;72.24
75420;BME280;63998;52.488;13.428;2022-11-13T00:48:30;102627.00;;;11.92;72.18
75420;BME280;63998;52.488;13.428;2022-11-13T00:50:56;102619.16;;;11.91;71.26
75420;BME280;63998;52.488;13.428;2022-11-13T00:53:21;102619.06;;;11.87;72.10
75420;BME280;63998;52.488;13.428;2022-11-13T00:55:46;102621.06;;;11.96;71.77
75420;BME280;63998;52.488;13.428;2022-11-13T00:58:15;102616.72;;;11.97;71.81
75420;BME280;63998;52.488;13.428;2022-11-13T01:00:42;102615.84;;;11.96;71.62
75420;BME280;63998;52.488;13.428;2022-11-13T01:03:08;102613.28;;;11.98;71.64
75420;BME280;63998;52.488;13.428;2022-11-13T01:05:39;102607.16;;;11.96;71.71
75420;BME280;63998;52.488;13.428;2022-11-13T01:08:06;102607.28;;;12.02;72.26
75420;BME280;63998;52.488;13.428;2022-11-13T01:10:33;102595.09;;;12.01;71.91
75420;BME280;63998;52.488;13.428;2022-11-13T01:12:58;102603.84;;;12.03;71.84
75420;BME280;63998;52.488;13.428;2022-11-13T01:15:24;102598.56;;;12.00;71.07
75420;BME280;63998;52.488;13.428;2022-11-13T01:17:50;102597.72;;;12.01;71.64
75420;BME280;63998;52.488;13.428;2022-11-13T01:20:16;102599.56;;;12.05;72.03
75420;BME280;63998;52.488;13.428;2022-11-13T01:22:41;102589.84;;;11.98;71.17
75420;BME280;63998;52.488;13.428;2022-11-13T01:25:07;102592.47;;;11.99;72.08
75420;BME280;63998;52.488;13.428;2022-11-13T01:27:35;102585.53;;;12.00;71.34
75420;BME280;63998;52.488;13.428;2022-11-13T01:30:01;102595.16;;;12.02;71.70
75420;BME280;63998;52.488;13.428;2022-11-13T01:32:26;102586.44;;;12.02;71.27
75420;BME280;63998;52.488;13.428;2022-11-13T01:34:52;102591.59;;;11.99;71.20
75420;BME280;63998;52.488;13.428;2022-11-13T01:37:17;102595.94;;;12.00;71.59
75420;BME280;63998;52.488;13.428;2022-11-13T01:39:42;102596.81;;;11.99;71.70
75420;BME280;63998;52.488;13.428;2022-11-13T01:42:08;102594.25;;;12.02;71.62
75420;BME280;63998;52.488;13.428;2022-11-13T01:47:12;102586.41;;;11.99;70.88
75420;BME280;63998;52.488;13.428;2022-11-13T01:49:41;102577.81;;;11.71;71.00
75420;BME280;63998;52.488;13.428;2022-11-13T01:52:31;102579.63;;;11.74;71.29
75420;BME280;63998;52.488;13.428;2022-11-13T01:55:13;102579.09;;;11.85;72.13
75420;BME280;63998;52.488;13.428;2022-11-13T01:57:40;102562.66;;;11.86;71.29
75420;BME280;63998;52.488;13.428;2022-11-13T02:00:08;102565.31;;;11.90;71.72
75420;BME280;63998;52.488;13.428;2022-11-13T02:02:37;102567.06;;;11.91;71.36
75420;BME280;63998;52.488;13.428;2022-11-13T02:05:05;102565.47;;;11.96;71.25
75420;BME280;63998;52.488;13.428;2022-11-13T02:07:35;102560.41;;;12.02;70.76
75420;BME280;63998;52.488;13.428;2022-11-13T02:10:00;102557.72;;;11.97;71.27
75420;BME280;63998;52.488;13.428;2022-11-13T02:12:38;102558.72;;;12.04;71.91
75420;BME280;63998;52.488;13.428;2022-11-13T02:15:06;102553.44;;;12.01;71.30
75420;BME280;63998;52.488;13.428;2022-11-13T02:17:48;102555.25;;;12.03;71.38
75420;BME280;63998;52.488;13.428;2022-11-13T02:20:15;102552.47;;;11.96;71.04
75420;BME280;63998;52.488;13.428;2022-11-13T02:25:07;102556.66;;;11.91;71.29
75420;BME280;63998;52.488;13.428;2022-11-13T02:30:16;102558.28;;;11.85;70.40
75420;BME280;63998;52.488;13.428;2022-11-13T02:32:48;102553.78;;;11.80;70.54
75420;BME280;63998;52.488;13.428;2022-11-13T02:35:17;102551.75;;;11.70;70.64
75420;BME280;63998;52.488;13.428;2022-11-13T02:37:44;102551.22;;;11.81;71.77
75420;BME280;63998;52.488;13.428;2022-11-13T02:40:10;102551.22;;;11.81;71.38
75420;BME280;63998;52.488;13.428;2022-11-13T02:42:38;102539.22;;;11.86;70.77
75420;BME280;63998;52.488;13.428;2022-11-13T02:45:04;102544.41;;;11.86;71.01
75420;BME280;63998;52.488;13.428;2022-11-13T02:47:33;102542.72;;;11.88;70.23
75420;BME280;63998;52.488;13.428;2022-11-13T02:49:59;102531.44;;;11.90;71.09
75420;BME280;63998;52.488;13.428;2022-11-13T02:52:29;102529.03;;;11.96;70.90
75420;BME280;63998;52.488;13.428;2022-11-13T02:54:56;102521.38;;;12.03;71.09
75420;BME280;63998;52.488;13.428;2022-11-13T02:57:24;102521.38;;;12.03;70.47
75420;BME280;63998;52.488;13.428;2022-11-13T02:59:52;102521.28;;;11.99;70.42
75420;BME280;63998;52.488;13.428;2022-11-13T03:02:17;102516.00;;;11.96;70.38
75420;BME280;63998;52.488;13.428;2022-11-13T03:04:42;102513.53;;;12.02;70.92
75420;BME280;63998;52.488;13.428;2022-11-13T03:07:09;102509.25;;;12.04;70.62
75420;BME280;63998;52.488;13.428;2022-11-13T03:09:36;102511.84;;;12.04;70.81
75420;BME280;63998;52.488;13.428;2022-11-13T03:12:01;102503.34;;;12.11;70.81
75420;BME280;63998;52.488;13.428;2022-11-13T03:14:29;102507.78;;;12.15;71.40
75420;BME280;63998;52.488;13.428;2022-11-13T03:16:55;102513.09;;;12.19;70.77
75420;BME280;63998;52.488;13.428;2022-11-13T03:19:22;102504.38;;;12.17;70.81
75420;BME280;63998;52.488;13.428;2022-11-13T03:21:48;102506.00;;;12.14;69.83
75420;BME280;63998;52.488;13.428;2022-11-13T03:24:16;102499.81;;;12.09;69.86
75420;BME280;63998;52.488;13.428;2022-11-13T03:26:41;102499.97;;;12.15;70.65
75420;BME280;63998;52.488;13.428;2022-11-13T03:29:09;102498.06;;;12.08;70.03
75420;BME280;63998;52.488;13.428;2022-11-13T03:31:36;102497.78;;;11.96;69.68
75420;BME280;63998;52.488;13.428;2022-11-13T03:34:02;102492.41;;;11.90;69.67
75420;BME280;63998;52.488;13.428;2022-11-13T03:36:27;102501.94;;;11.89;69.73
75420;BME280;63998;52.488;13.428;2022-11-13T03:38:55;102511.41;;;11.85;69.80
75420;BME280;63998;52.488;13.428;2022-11-13T03:41:21;102510.34;;;11.79;70.31
75420;BME280;63998;52.488;13.428;2022-11-13T03:43:47;102509.66;;;11.84;69.86
75420;BME280;63998;52.488;13.428;2022-11-13T03:46:12;102509.56;;;11.81;70.10
75420;BME280;63998;52.488;13.428;2022-11-13T03:48:40;102507.13;;;11.89;69.57
75420;BME280;63998;52.488;13.428;2022-11-13T03:51:05;102500.34;;;11.94;70.25
75420;BME280;63998;52.488;13.428;2022-11-13T03:53:33;102504.78;;;12.00;70.27
75420;BME280;63998;52.488;13.428;2022-11-13T03:56:01;102509.13;;;11.98;70.00
75420;BME280;63998;52.488;13.428;2022-11-13T03:58:26;102510.88;;;11.99;70.53
75420;BME280;63998;52.488;13.428;2022-11-13T04:00:53;102516.97;;;12.01;69.88
75420;BME280;63998;52.488;13.428;2022-11-13T04:03:21;102517.06;;;12.04;69.75
75420;BME280;63998;52.488;13.428;2022-11-13T04:05:48;102508.47;;;12.08;70.59
75420;BME280;63998;52.488;13.428;2022-11-13T04:08:15;102512.91;;;12.10;69.89
75420;BME280;63998;52.488;13.428;2022-11-13T04:10:46;102508.56;;;12.11;69.87
75420;BME280;63998;52.488;13.428;2022-11-13T04:13:12;102499.88;;;12.12;69.95
75420;BME280;63998;52.488;13.428;2022-11-13T04:15:37;102503.34;;;12.11;69.32
75420;BME280;63998;52.488;13.428;2022-11-13T04:18:03;102501.59;;;12.10;69.02
75420;BME280;63998;52.488;13.428;2022-11-13T04:20:29;102494.47;;;12.03;68.55
75420;BME280;63998;52.488;13.428;2022-11-13T04:22:55;102486.47;;;11.95;68.82
75420;BME280;63998;52.488;13.428;2022-11-13T04:25:20;102493.94;;;11.81;68.75
75420;BME280;63998;52.488;13.428;2022-11-13T04:27:48;102488.03;;;11.88;70.07
75420;BME280;63998;52.488;13.428;2022-11-13T04:30:13;102482.06;;;11.93;69.97
75420;BME280;63998;52.488;13.428;2022-11-13T04:32:39;102478.63;;;11.94;69.14
75420;BME280;63998;52.488;13.428;2022-11-13T04:35:09;102484.66;;;11.93;69.32
75420;BME280;63998;52.488;13.428;2022-11-13T04:37:36;102481.22;;;11.94;68.51
75420;BME280;63998;52.488;13.428;2022-11-13T04:40:03;102477.84;;;11.98;69.54
75420;BME280;63998;52.488;13.428;2022-11-13T04:42:28;102466.72;;;12.05;70.17
75420;BME280;63998;52.488;13.428;2022-11-13T04:45:15;102485.09;;;12.09;70.03
75420;BME280;63998;52.488;13.428;2022-11-13T04:47:41;102482.44;;;12.08;69.36
75420;BME280;63998;52.488;13.428;2022-11-13T04:50:06;102480.59;;;12.04;69.45
75420;BME280;63998;52.488;13.428;2022-11-13T04:52:31;102483.13;;;12.01;69.04
75420;BME280;63998;52.488;13.428;2022-11-13T04:54:57;102486.56;;;12.00;69.74
75420;BME280;63998;52.488;13.428;2022-11-13T04:57:22;102483.75;;;11.91;68.80
75420;BME280;63998;52.488;13.428;2022-11-13T04:59:50;102474.72;;;11.76;68.96
75420;BME280;63998;52.488;13.428;2022-11-13T05:02:15;102486.47;;;11.62;68.95
75420;BME280;63998;52.488;13.428;2022-11-13T05:04:46;102480.41;;;11.63;69.34
75420;BME280;63998;52.488;13.428;2022-11-13T05:07:11;102481.41;;;11.68;69.97
75420;BME280;63998;52.488;13.428;2022-11-13T05:09:38;102481.50;;;11.71;69.38
75420;BME280;63998;52.488;13.428;2022-11-13T05:12:04;102473.00;;;11.77;69.99
75420;BME280;63998;52.488;13.428;2022-11-13T05:14:36;102480.84;;;11.78;69.45
75420;BME280;63998;52.488;13.428;2022-11-13T05:17:03;102480.00;;;11.79;68.95
75420;BME280;63998;52.488;13.428;2022-11-13T05:19:28;102483.59;;;11.84;68.82
75420;BME280;63998;52.488;13.428;2022-11-13T05:21:54;102474.22;;;11.91;69.56
75420;BME280;63998;52.488;13.428;2022-11-13T05:24:21;102475.09;;;11.92;69.39
75420;BME280;63998;52.488;13.428;2022-11-13T05:26:47;102475.09;;;11.92;68.44
75420;BME280;63998;52.488;13.428;2022-11-13T05:29:12;102470.06;;;11.99;69.58
75420;BME280;63998;52.488;13.428;2022-11-13T05:31:37;102473.53;;;12.00;69.01
75420;BME280;63998;52.488;13.428;2022-11-13T05:34:04;102470.94;;;12.00;68.84
75420;BME280;63998;52.488;13.428;2022-11-13T05:36:30;102472.75;;;12.02;69.13
75420;BME280;63998;52.488;13.428;2022-11-13T05:38:55;102468.41;;;12.03;69.68
75420;BME280;63998;52.488;13.428;2022-11-13T05:41:21;102466.81;;;12.08;69.17
75420;BME280;63998;52.488;13.428;2022-11-13T05:43:47;102468.41;;;12.03;68.87
75420;BME280;63998;52.488;13.428;2022-11-13T05:46:26;102468.19;;;11.94;68.63
75420;BME280;63998;52.488;13.428;2022-11-13T05:48:56;102462.00;;;11.88;68.55
75420;BME280;63998;52.488;13.428;2022-11-13T05:51:25;102463.84;;;11.93;70.09
75420;BME280;63998;52.488;13.428;2022-11-13T05:53:52;102460.34;;;11.92;69.74
75420;BME280;63998;52.488;13.428;2022-11-13T05:56:25;102463.84;;;11.93;68.92
75420;BME280;63998;52.488;13.428;2022-11-13T05:58:52;102459.47;;;11.92;69.07
75420;BME280;63998;52.488;13.428;2022-11-13T06:03:47;102460.50;;;11.98;70.15
75420;BME280;63998;52.488;13.428;2022-11-13T06:06:15;102454.41;;;11.98;69.43
75420;BME280;63998;52.488;13.428;2022-11-13T06:08:42;102450.97;;;11.99;69.16
75420;BME280;63998;52.488;13.428;2022-11-13T06:11:11;102449.81;;;11.86;69.04
75420;BME280;63998;52.488;13.428;2022-11-13T06:13:37;102454.19;;;11.88;70.08
75420;BME280;63998;52.488;13.428;2022-11-13T06:16:17;102447.28;;;11.91;69.54
75420;BME280;63998;52.488;13.428;2022-11-13T06:18:44;102448.13;;;11.90;69.67
75420;BME280;63998;52.488;13.428;2022-11-13T06:21:18;102433.22;;;11.82;69.85
75420;BME280;63998;52.488;13.428;2022-11-13T06:23:46;102441.88;;;11.81;70.23
75420;BME280;63998;52.488;13.428;2022-11-13T06:26:16;102436.75;;;11.84;70.23
75420;BME280;63998;52.488;13.428;2022-11-13T06:28:44;102435.06;;;11.86;70.54
75420;BME280;63998;52.488;13.428;2022-11-13T06:31:14;102440.41;;;11.93;70.37
75420;BME280;63998;52.488;13.428;2022-11-13T06:33:43;102440.41;;;11.93;70.50
75420;BME280;63998;52.488;13.428;2022-11-13T06:36:14;102432.53;;;11.91;70.11
75420;BME280;63998;52.488;13.428;2022-11-13T06:38:42;102429.88;;;11.88;69.98
75420;BME280;63998;52.488;13.428;2022-11-13T06:41:10;102431.59;;;11.87;71.38
75420;BME280;63998;52.488;13.428;2022-11-13T06:43:38;102426.16;;;11.78;70.57
75420;BME280;63998;52.488;13.428;2022-11-13T06:46:11;102433.13;;;11.79;71.05
75420;BME280;63998;52.488;13.428;2022-11-13T06:48:39;102423.53;;;11.77;70.86
75420;BME280;63998;52.488;13.428;2022-11-13T06:51:08;102428.78;;;11.78;71.67
75420;BME280;63998;52.488;13.428;2022-11-13T06:53:33;102431.28;;;11.75;70.48
75420;BME280;63998;52.488;13.428;2022-11-13T06:55:59;102433.06;;;11.76;71.69
75420;BME280;63998;52.488;13.428;2022-11-13T06:58:25;102426.03;;;11.74;71.13
75420;BME280;63998;52.488;13.428;2022-11-13T07:00:53;102425.75;;;11.63;70.91
75420;BME280;63998;52.488;13.428;2022-11-13T07:03:25;102424.47;;;11.46;71.10
75420;BME280;63998;52.488;13.428;2022-11-13T07:05:51;102416.59;;;11.43;71.90
75420;BME280;63998;52.488;13.428;2022-11-13T07:08:17;102418.34;;;11.44;71.63
75420;BME280;63998;52.488;13.428;2022-11-13T07:10:42;102420.22;;;11.49;72.53
75420;BME280;63998;52.488;13.428;2022-11-13T07:13:10;102420.28;;;11.52;72.14
75420;BME280;63998;52.488;13.428;2022-11-13T07:15:37;102416.66;;;11.46;72.01
75420;BME280;63998;52.488;13.428;2022-11-13T07:18:08;102407.75;;;11.38;72.21
75420;BME280;63998;52.488;13.428;2022-11-13T07:20:34;102414.81;;;11.42;72.24
75420;BME280;63998;52.488;13.428;2022-11-13T07:23:02;102407.75;;;11.38;72.76
75420;BME280;63998;52.488;13.428;2022-11-13T07:25:29;102411.38;;;11.43;72.87
75420;BME280;63998;52.488;13.428;2022-11-13T07:27:54;102406.25;;;11.46;73.36
75420;BME280;63998;52.488;13.428;2022-11-13T07:30:20;102409.69;;;11.45;72.70
75420;BME280;63998;52.488;13.428;2022-11-13T07:32:48;102401.84;;;11.43;72.46
75420;BME280;63998;52.488;13.428;2022-11-13T07:35:13;102401.94;;;11.46;72.96
75420;BME280;63998;52.488;13.428;2022-11-13T07:37:41;102402.66;;;11.41;73.41
75420;BME280;63998;52.488;13.428;2022-11-13T07:40:07;102408.06;;;11.50;72.93
75420;BME280;63998;52.488;13.428;2022-11-13T07:42:32;102415.22;;;11.57;73.31
75420;BME280;63998;52.488;13.428;2022-11-13T07:44:58;102416.84;;;11.53;72.95
75420;BME280;63998;52.488;13.428;2022-11-13T07:47:25;102415.03;;;11.51;73.18
75420;BME280;63998;52.488;13.428;2022-11-13T07:49:53;102410.75;;;11.53;73.64
75420;BME280;63998;52.488;13.428;2022-11-13T07:52:18;102408.03;;;11.47;73.06
75420;BME280;63998;52.488;13.428;2022-11-13T07:54:44;102412.97;;;11.38;73.75
75420;BME280;63998;52.488;13.428;2022-11-13T07:57:09;102412.97;;;11.38;73.84
75420;BME280;63998;52.488;13.428;2022-11-13T07:59:34;102406.94;;;11.39;73.25
75420;BME280;63998;52.488;13.428;2022-11-13T08:02:04;102406.09;;;11.40;73.94
75420;BME280;63998;52.488;13.428;2022-11-13T08:04:30;102404.50;;;11.45;74.00
75420;BME280;63998;52.488;13.428;2022-11-13T08:06:55;102404.41;;;11.42;73.56
75420;BME280;63998;52.488;13.428;2022-11-13T08:09:21;102406.34;;;11.49;74.23
75420;BME280;63998;52.488;13.428;2022-11-13T08:11:46;102404.59;;;11.48;73.92
75420;BME280;63998;52.488;13.428;2022-11-13T08:14:12;102406.56;;;11.58;74.56
75420;BME280;63998;52.488;13.428;2022-11-13T08:16:37;102410.09;;;11.60;73.52
75420;BME280;63998;52.488;13.428;2022-11-13T08:19:05;102406.78;;;11.67;74.00
75420;BME280;63998;52.488;13.428;2022-11-13T08:21:30;102404.28;;;11.72;72.94
75420;BME280;63998;52.488;13.428;2022-11-13T08:23:55;102400.84;;;11.73;73.41
75420;BME280;63998;52.488;13.428;2022-11-13T08:26:23;102409.66;;;11.78;72.89
75420;BME280;63998;52.488;13.428;2022-11-13T08:28:49;102401.06;;;11.80;72.95
75420;BME280;63998;52.488;13.428;2022-11-13T08:31:15;102400.22;;;11.81;73.14
75420;BME280;63998;52.488;13.428;2022-11-13T08:33:41;102405.19;;;11.72;72.59
75420;BME280;63998;52.488;13.428;2022-11-13T08:36:07;102400.72;;;11.68;72.74
75420;BME280;63998;52.488;13.428;2022-11-13T08:38:33;102395.34;;;11.61;72.67
75420;BME280;63998;52.488;13.428;2022-11-13T08:40:59;102399.06;;;11.70;73.13
75420;BME280;63998;52.488;13.428;2022-11-13T08:43:25;102395.41;;;11.64;73.07
75420;BME280;63998;52.488;13.428;2022-11-13T08:45:51;102396.28;;;11.64;73.07
75420;BME280;63998;52.488;13.428;2022-11-13T08:48:19;102399.88;;;11.69;72.47
75420;BME280;63998;52.488;13.428;2022-11-13T08:50:45;102395.41;;;11.64;72.27
75420;BME280;63998;52.488;13.428;2022-11-13T08:53:10;102399.59;;;11.57;72.48
75420;BME280;63998;52.488;13.428;2022-11-13T08:55:36;102394.94;;;11.44;72.50
75420;BME280;63998;52.488;13.428;2022-11-13T08:58:03;102399.44;;;11.51;72.37
75420;BME280;63998;52.488;13.428;2022-11-13T09:00:30;102399.28;;;11.45;72.13
75420;BME280;63998;52.488;13.428;2022-11-13T09:02:57;102399.50;;;11.54;72.88
75420;BME280;63998;52.488;13.428;2022-11-13T09:05:23;102395.09;;;11.51;72.37
75420;BME280;63998;52.488;13.428;2022-11-13T09:07:49;102396.81;;;11.49;72.76
75420;BME280;63998;52.488;13.428;2022-11-13T09:10:17;102392.25;;;11.41;72.82
75420;BME280;63998;52.488;13.428;2022-11-13T09:12:42;102387.03;;;11.41;72.58
75420;BME280;63998;52.488;13.428;2022-11-13T09:15:09;102389.81;;;11.47;72.13
75420;BME280;63998;52.488;13.428;2022-11-13T09:17:37;102385.53;;;11.49;71.65
75420;BME280;63998;52.488;13.428;2022-11-13T09:20:05;102382.34;;;11.62;71.39
75420;BME280;63998;52.488;13.428;2022-11-13T09:22:32;102390.16;;;11.62;71.45
75420;BME280;63998;52.488;13.428;2022-11-13T09:24:58;102389.09;;;11.54;70.50
75420;BME280;63998;52.488;13.428;2022-11-13T09:27:23;102392.72;;;11.59;70.99
75420;BME280;63998;52.488;13.428;2022-11-13T09:29:48;102391.03;;;11.61;71.13
75420;BME280;63998;52.488;13.428;2022-11-13T09:32:16;102388.47;;;11.64;70.49
75420;BME280;63998;52.488;13.428;2022-11-13T09:34:41;102391.91;;;11.63;70.55
75420;BME280;63998;52.488;13.428;2022-11-13T09:37:07;102385.81;;;11.63;69.88
75420;BME280;63998;52.488;13.428;2022-11-13T09:39:32;102382.50;;;11.68;70.45
75420;BME280;63998;52.488;13.428;2022-11-13T09:42:19;102382.50;;;11.68;69.85
75420;BME280;63998;52.488;13.428;2022-11-13T09:44:51;102384.34;;;11.72;69.23
75420;BME280;63998;52.488;13.428;2022-11-13T09:47:39;102371.22;;;11.68;69.43
75420;BME280;63998;52.488;13.428;2022-11-13T09:52:41;102380.25;;;11.82;68.22
75420;BME280;63998;52.488;13.428;2022-11-13T09:55:16;102373.19;;;11.76;68.38
75420;BME280;63998;52.488;13.428;2022-11-13T10:00:12;102371.78;;;11.91;69.12
75420;BME280;63998;52.488;13.428;2022-11-13T10:05:30;102372.56;;;11.86;68.03
75420;BME280;63998;52.488;13.428;2022-11-13T10:08:06;102364.50;;;11.76;67.98
75420;BME280;63998;52.488;13.428;2022-11-13T10:10:43;102360.31;;;11.82;68.14
75420;BME280;63998;52.488;13.428;2022-11-13T10:13:20;102361.50;;;11.97;68.56
75420;BME280;63998;52.488;13.428;2022-11-13T10:15:50;102355.66;;;12.07;68.73
75420;BME280;63998;52.488;13.428;2022-11-13T10:18:27;102354.94;;;12.14;67.27
75420;BME280;63998;52.488;13.428;2022-11-13T10:23:37;102355.81;;;12.14;66.64
75420;BME280;63998;52.488;13.428;2022-11-13T10:26:17;102357.50;;;12.11;66.55
75420;BME280;63998;52.488;13.428;2022-11-13T10:28:46;102354.31;;;12.26;67.56
75420;BME280;63998;52.488;13.428;2022-11-13T10:31:16;102351.03;;;12.34;66.86
75420;BME280;63998;52.488;13.428;2022-11-13T10:33:41;102346.63;;;12.32;65.87
75420;BME280;63998;52.488;13.428;2022-11-13T10:36:17;102333.75;;;12.39;66.71
75420;BME280;63998;52.488;13.428;2022-11-13T10:38:53;102337.41;;;12.47;66.15
75420;BME280;63998;52.488;13.428;2022-11-13T10:41:24;102326.88;;;12.43;65.40
75420;BME280;63998;52.488;13.428;2022-11-13T10:44:17;102337.09;;;12.32;64.93
75420;BME280;63998;52.488;13.428;2022-11-13T10:46:46;102336.03;;;12.24;64.82
75420;BME280;63998;52.488;13.428;2022-11-13T10:49:20;102336.22;;;12.32;65.55
75420;BME280;63998;52.488;13.428;2022-11-13T10:51:57;102328.59;;;12.42;65.56
75420;BME280;63998;52.488;13.428;2022-11-13T10:54:27;102324.50;;;12.55;65.25
75420;BME280;63998;52.488;13.428;2022-11-13T10:57:03;102318.34;;;12.51;64.41
75420;BME280;63998;52.488;13.428;2022-11-13T10:59:43;102316.56;;;12.47;64.88
75420;BME280;63998;52.488;13.428;2022-11-13T11:02:16;102316.78;;;12.59;65.20
75420;BME280;63998;52.488;13.428;2022-11-13T11:04:45;102312.50;;;12.65;64.67
75420;BME280;63998;52.488;13.428;2022-11-13T11:07:14;102314.19;;;12.59;63.93
75420;BME280;63998;52.488;13.428;2022-11-13T11:09:46;102305.03;;;12.38;63.65
75420;BME280;63998;52.488;13.428;2022-11-13T11:12:17;102309.38;;;12.37;63.39
75420;BME280;63998;52.488;13.428;2022-11-13T11:17:45;102302.38;;;12.80;63.79
75420;BME280;63998;52.488;13.428;2022-11-13T11:20:20;102302.50;;;12.87;62.65
75420;BME280;63998;52.488;13.428;2022-11-13T11:22:59;102292.34;;;13.03;62.06
75420;BME280;63998;52.488;13.428;2022-11-13T11:25:39;102284.00;;;13.22;62.51
75420;BME280;63998;52.488;13.428;2022-11-13T11:28:22;102278.13;;;13.37;61.79
75420;BME280;63998;52.488;13.428;2022-11-13T11:34:13;102276.94;;;13.75;59.18
75420;BME280;63998;52.488;13.428;2022-11-13T11:47:21;102262.50;;;14.85;57.33
75420;BME280;63998;52.488;13.428;2022-11-13T11:49:52;102254.00;;;15.10;56.61
75420;BME280;63998;52.488;13.428;2022-11-13T11:52:43;102257.66;;;15.33;56.24
75420;BME280;63998;52.488;13.428;2022-11-13T11:55:29;102249.16;;;15.62;54.29
75420;BME280;63998;52.488;13.428;2022-11-13T12:01:04;102246.75;;;16.13;54.29
75420;BME280;63998;52.488;13.428;2022-11-13T12:06:18;102235.50;;;16.54;53.15
75420;BME280;63998;52.488;13.428;2022-11-13T12:09:15;102232.91;;;16.75;51.22
75420;BME280;63998;52.488;13.428;2022-11-13T12:14:37;102218.03;;;17.05;50.56
75420;BME280;63998;52.488;13.428;2022-11-13T12:25:03;102223.16;;;17.69;48.11
75420;BME280;63998;52.488;13.428;2022-11-13T12:27:42;102210.00;;;17.69;47.20
75420;BME280;63998;52.488;13.428;2022-11-13T12:30:14;102203.88;;;17.56;47.30
75420;BME280;63998;52.488;13.428;2022-11-13T12:33:10;102194.31;;;17.37;48.22
75420;BME280;63998;52.488;13.428;2022-11-13T12:35:37;102195.16;;;17.66;47.42
75420;BME280;63998;52.488;13.428;2022-11-13T12:38:35;102191.72;;;17.28;47.71
75420;BME280;63998;52.488;13.428;2022-11-13T12:43:53;102191.38;;;18.17;46.29
75420;BME280;63998;52.488;13.428;2022-11-13T12:46:32;102189.38;;;18.53;45.42
75420;BME280;63998;52.488;13.428;2022-11-13T12:49:00;102181.47;;;18.54;44.75
75420;BME280;63998;52.488;13.428;2022-11-13T12:51:39;102187.56;;;18.64;44.40
75420;BME280;63998;52.488;13.428;2022-11-13T12:54:07;102180.25;;;18.93;44.67
75420;BME280;63998;52.488;13.428;2022-11-13T12:56:33;102173.97;;;19.10;43.18
75420;BME280;63998;52.488;13.428;2022-11-13T13:01:48;102159.22;;;19.71;42.06
75420;BME280;63998;52.488;13.428;2022-11-13T13:15:35;102147.53;;;21.00;39.85
75420;BME280;63998;52.488;13.428;2022-11-13T13:20:33;102147.38;;;21.07;39.08
75420;BME280;63998;52.488;13.428;2022-11-13T13:22:59;102143.94;;;21.02;39.14
75420;BME280;63998;52.488;13.428;2022-11-13T13:25:30;102145.56;;;21.09;38.92
75420;BME280;63998;52.488;13.428;2022-11-13T13:28:19;102136.53;;;21.23;38.92
75420;BME280;63998;52.488;13.428;2022-11-13T13:30:59;102143.66;;;21.19;38.74
75420;BME280;63998;52.488;13.428;2022-11-13T13:36:31;102139.13;;;21.26;38.61
75420;BME280;63998;52.488;13.428;2022-11-13T13:44:28;102131.19;;;21.67;37.70
75420;BME280;63998;52.488;13.428;2022-11-13T13:46:56;102138.56;;;21.92;37.61
75420;BME280;63998;52.488;13.428;2022-11-13T13:49:23;102125.31;;;21.93;36.79
75420;BME280;63998;52.488;13.428;2022-11-13T13:51:54;102121.84;;;21.90;37.04
75420;BME280;63998;52.488;13.428;2022-11-13T13:54:26;102133.31;;;21.90;37.36
75420;BME280;63998;52.488;13.428;2022-11-13T13:56:55;102121.50;;;21.66;37.36
75420;BME280;63998;52.488;13.428;2022-11-13T13:59:35;102130.59;;;21.53;37.04
75420;BME280;63998;52.488;13.428;2022-11-13T14:02:11;102128.31;;;21.38;37.25
75420;BME280;63998;52.488;13.428;2022-11-13T14:04:45;102129.25;;;21.34;37.13
75420;BME280;63998;52.488;13.428;2022-11-13T14:07:24;102122.09;;;21.39;36.79
75420;BME280;63998;52.488;13.428;2022-11-13T14:10:06;102118.00;;;21.64;36.77
75420;BME280;63998;52.488;13.428;2022-11-13T14:12:39;102113.88;;;21.52;36.58